sensor_id;sensor_type;location;lat;lon;timestamp;P1;durP1;ratioP1;P2;durP2;ratioP2
25982;SDS011;13773;48.868;10.730;2023-12-28T00:00:49;5.73;;;4.10;;
25982;SDS011;13773;48.868;10.730;2023-12-28T00:03:14;6.03;;;4.53;;
25982;SDS011;13773;48.868;10.730;2023-12-28T00:05:40;7.37;;;4.60;;
25982;SDS011;13773;48.868;10.730;2023-12-28T00:08:06;6.83;;;4.13;;
25982;SDS011;13773;48.868;10.730;2023-12-28T00:10:32;10.13;;;5.03;;
25982;SDS011;13773;48.868;10.730;2023-12-28T00:12:57;6.03;;;4.57;;
25982;SDS011;13773;48.868;10.730;2023-12-28T00:15:23;6.03;;;4.27;;
25982;SDS011;13773;48.868;10.730;2023-12-28T00:17:49;5.23;;;3.87;;
25982;SDS011;13773;48.868;10.730;2023-12-28T00:20:14;5.07;;;3.97;;
25982;SDS011;13773;48.868;10.730;2023-12-28T00:22:40;7.63;;;4.63;;
25982;SDS011;13773;48.868;10.730;2023-12-28T00:25:06;5.07;;;4.07;;
25982;SDS011;13773;48.868;10.730;2023-12-28T00:27:31;5.77;;;4.53;;
25982;SDS011;13773;48.868;10.730;2023-12-28T00:30:02;7.57;;;4.77;;
25982;SDS011;13773;48.868;10.730;2023-12-28T00:32:30;6.53;;;4.57;;
25982;SDS011;13773;48.868;10.730;2023-12-28T00:34:55;7.20;;;4.23;;
25982;SDS011;13773;48.868;10.730;2023-12-28T00:37:21;5.97;;;4.30;;
25982;SDS011;13773;48.868;10.730;2023-12-28T00:39:47;4.87;;;4.37;;
25982;SDS011;13773;48.868;10.730;2023-12-28T00:42:14;4.40;;;4.00;;
25982;SDS011;13773;48.868;10.730;2023-12-28T00:44:40;5.70;;;3.90;;
25982;SDS011;13773;48.868;10.730;2023-12-28T00:47:06;7.57;;;4.90;;
25982;SDS011;13773;48.868;10.730;2023-12-28T00:49:32;5.20;;;4.63;;
25982;SDS011;13773;48.868;10.730;2023-12-28T00:51:58;7.83;;;4.33;;
25982;SDS011;13773;48.868;10.730;2023-12-28T00:54:24;6.30;;;4.53;;
25982;SDS011;13773;48.868;10.730;2023-12-28T00:56:50;5.70;;;4.43;;
25982;SDS011;13773;48.868;10.730;2023-12-28T00:59:16;7.00;;;4.47;;
25982;SDS011;13773;48.868;10.730;2023-12-28T01:01:41;5.80;;;4.43;;
25982;SDS011;13773;48.868;10.730;2023-12-28T01:04:07;8.60;;;5.03;;
25982;SDS011;13773;48.868;10.730;2023-12-28T01:06:33;8.33;;;5.20;;
25982;SDS011;13773;48.868;10.730;2023-12-28T01:08:58;7.17;;;4.50;;
25982;SDS011;13773;48.868;10.730;2023-12-28T01:11:24;7.27;;;4.53;;
25982;SDS011;13773;48.868;10.730;2023-12-28T01:13:51;6.80;;;4.80;;
25982;SDS011;13773;48.868;10.730;2023-12-28T01:16:17;5.00;;;4.40;;
25982;SDS011;13773;48.868;10.730;2023-12-28T01:18:42;6.60;;;4.70;;
25982;SDS011;13773;48.868;10.730;2023-12-28T01:21:08;6.30;;;4.27;;
25982;SDS011;13773;48.868;10.730;2023-12-28T01:23:34;8.50;;;4.37;;
25982;SDS011;13773;48.868;10.730;2023-12-28T01:25:59;5.73;;;4.73;;
25982;SDS011;13773;48.868;10.730;2023-12-28T01:28:27;5.73;;;4.20;;
25982;SDS011;13773;48.868;10.730;2023-12-28T01:30:53;5.80;;;4.70;;
25982;SDS011;13773;48.868;10.730;2023-12-28T01:33:18;5.83;;;4.47;;
25982;SDS011;13773;48.868;10.730;2023-12-28T01:35:44;7.33;;;4.57;;
25982;SDS011;13773;48.868;10.730;2023-12-28T01:38:10;6.17;;;4.27;;
25982;SDS011;13773;48.868;10.730;2023-12-28T01:40:35;5.67;;;4.30;;
25982;SDS011;13773;48.868;10.730;2023-12-28T01:43:01;8.80;;;4.60;;
25982;SDS011;13773;48.868;10.730;2023-12-28T01:45:27;7.47;;;5.30;;
25982;SDS011;13773;48.868;10.730;2023-12-28T01:47:53;8.53;;;5.37;;
25982;SDS011;13773;48.868;10.730;2023-12-28T01:50:20;7.63;;;4.90;;
25982;SDS011;13773;48.868;10.730;2023-12-28T01:52:47;8.27;;;4.73;;
25982;SDS011;13773;48.868;10.730;2023-12-28T01:55:13;7.00;;;4.90;;
25982;SDS011;13773;48.868;10.730;2023-12-28T01:57:39;6.57;;;4.60;;
25982;SDS011;13773;48.868;10.730;2023-12-28T02:00:06;7.07;;;5.07;;
25982;SDS011;13773;48.868;10.730;2023-12-28T02:02:32;7.03;;;4.77;;
25982;SDS011;13773;48.868;10.730;2023-12-28T02:04:59;8.20;;;5.73;;
25982;SDS011;13773;48.868;10.730;2023-12-28T02:07:25;7.13;;;5.70;;
25982;SDS011;13773;48.868;10.730;2023-12-28T02:09:51;6.27;;;5.03;;
25982;SDS011;13773;48.868;10.730;2023-12-28T02:12:17;5.80;;;4.90;;
25982;SDS011;13773;48.868;10.730;2023-12-28T02:14:43;5.97;;;5.30;;
25982;SDS011;13773;48.868;10.730;2023-12-28T02:19:45;5.87;;;4.97;;
25982;SDS011;13773;48.868;10.730;2023-12-28T02:22:12;8.63;;;5.53;;
25982;SDS011;13773;48.868;10.730;2023-12-28T02:27:24;7.73;;;5.60;;
25982;SDS011;13773;48.868;10.730;2023-12-28T02:29:50;6.50;;;5.13;;
25982;SDS011;13773;48.868;10.730;2023-12-28T02:32:16;10.03;;;5.67;;
25982;SDS011;13773;48.868;10.730;2023-12-28T02:34:44;8.33;;;5.13;;
25982;SDS011;13773;48.868;10.730;2023-12-28T02:37:12;7.53;;;5.27;;
25982;SDS011;13773;48.868;10.730;2023-12-28T02:39:40;8.63;;;5.53;;
25982;SDS011;13773;48.868;10.730;2023-12-28T02:42:07;6.87;;;5.37;;
25982;SDS011;13773;48.868;10.730;2023-12-28T02:44:33;7.73;;;5.43;;
25982;SDS011;13773;48.868;10.730;2023-12-28T02:46:58;6.63;;;5.10;;
25982;SDS011;13773;48.868;10.730;2023-12-28T02:49:24;9.77;;;5.67;;
25982;SDS011;13773;48.868;10.730;2023-12-28T02:51:50;6.30;;;5.03;;
25982;SDS011;13773;48.868;10.730;2023-12-28T02:54:15;6.07;;;5.47;;
25982;SDS011;13773;48.868;10.730;2023-12-28T02:56:41;9.37;;;5.83;;
25982;SDS011;13773;48.868;10.730;2023-12-28T02:59:06;8.90;;;5.37;;
25982;SDS011;13773;48.868;10.730;2023-12-28T03:01:32;8.47;;;5.27;;
25982;SDS011;13773;48.868;10.730;2023-12-28T03:03:58;7.17;;;5.17;;
25982;SDS011;13773;48.868;10.730;2023-12-28T03:06:23;7.13;;;5.30;;
25982;SDS011;13773;48.868;10.730;2023-12-28T03:08:49;7.60;;;5.20;;
25982;SDS011;13773;48.868;10.730;2023-12-28T03:11:15;9.03;;;5.20;;
25982;SDS011;13773;48.868;10.730;2023-12-28T03:13:41;6.73;;;5.60;;
25982;SDS011;13773;48.868;10.730;2023-12-28T03:16:06;7.00;;;4.70;;
25982;SDS011;13773;48.868;10.730;2023-12-28T03:18:32;7.53;;;5.43;;
25982;SDS011;13773;48.868;10.730;2023-12-28T03:20:58;7.97;;;5.13;;
25982;SDS011;13773;48.868;10.730;2023-12-28T03:23:24;7.03;;;5.00;;
25982;SDS011;13773;48.868;10.730;2023-12-28T03:25:50;7.97;;;5.53;;
25982;SDS011;13773;48.868;10.730;2023-12-28T03:28:15;6.13;;;5.30;;
25982;SDS011;13773;48.868;10.730;2023-12-28T03:30:41;7.00;;;4.90;;
25982;SDS011;13773;48.868;10.730;2023-12-28T03:33:07;9.50;;;5.23;;
25982;SDS011;13773;48.868;10.730;2023-12-28T03:35:33;7.57;;;5.20;;
25982;SDS011;13773;48.868;10.730;2023-12-28T03:37:58;8.60;;;5.40;;
25982;SDS011;13773;48.868;10.730;2023-12-28T03:40:25;7.00;;;4.90;;
25982;SDS011;13773;48.868;10.730;2023-12-28T03:42:50;5.77;;;4.67;;
25982;SDS011;13773;48.868;10.730;2023-12-28T03:45:16;6.90;;;5.20;;
25982;SDS011;13773;48.868;10.730;2023-12-28T03:47:42;7.87;;;5.33;;
25982;SDS011;13773;48.868;10.730;2023-12-28T03:50:07;9.37;;;5.23;;
25982;SDS011;13773;48.868;10.730;2023-12-28T03:52:33;6.50;;;4.93;;
25982;SDS011;13773;48.868;10.730;2023-12-28T03:54:59;7.20;;;5.13;;
25982;SDS011;13773;48.868;10.730;2023-12-28T03:57:25;6.53;;;5.40;;
25982;SDS011;13773;48.868;10.730;2023-12-28T03:59:51;7.50;;;5.47;;
25982;SDS011;13773;48.868;10.730;2023-12-28T04:02:18;8.20;;;4.90;;
25982;SDS011;13773;48.868;10.730;2023-12-28T04:04:44;8.27;;;4.80;;
25982;SDS011;13773;48.868;10.730;2023-12-28T04:07:10;6.73;;;5.37;;
25982;SDS011;13773;48.868;10.730;2023-12-28T04:09:35;8.73;;;5.47;;
25982;SDS011;13773;48.868;10.730;2023-12-28T04:12:01;6.57;;;4.73;;
25982;SDS011;13773;48.868;10.730;2023-12-28T04:14:27;9.30;;;5.67;;
25982;SDS011;13773;48.868;10.730;2023-12-28T04:16:52;6.70;;;4.87;;
25982;SDS011;13773;48.868;10.730;2023-12-28T04:19:18;7.17;;;4.73;;
25982;SDS011;13773;48.868;10.730;2023-12-28T04:21:44;6.53;;;4.90;;
25982;SDS011;13773;48.868;10.730;2023-12-28T04:24:10;8.73;;;5.50;;
25982;SDS011;13773;48.868;10.730;2023-12-28T04:26:35;6.40;;;4.77;;
25982;SDS011;13773;48.868;10.730;2023-12-28T04:29:01;7.03;;;4.93;;
25982;SDS011;13773;48.868;10.730;2023-12-28T04:31:27;5.47;;;4.47;;
25982;SDS011;13773;48.868;10.730;2023-12-28T04:33:53;6.40;;;4.47;;
25982;SDS011;13773;48.868;10.730;2023-12-28T04:36:19;6.07;;;4.80;;
25982;SDS011;13773;48.868;10.730;2023-12-28T04:38:44;9.10;;;5.83;;
25982;SDS011;13773;48.868;10.730;2023-12-28T04:41:10;7.47;;;5.23;;
25982;SDS011;13773;48.868;10.730;2023-12-28T04:43:36;8.50;;;5.30;;
25982;SDS011;13773;48.868;10.730;2023-12-28T04:46:03;7.87;;;5.43;;
25982;SDS011;13773;48.868;10.730;2023-12-28T04:48:30;7.77;;;5.53;;
25982;SDS011;13773;48.868;10.730;2023-12-28T04:50:56;7.00;;;4.70;;
25982;SDS011;13773;48.868;10.730;2023-12-28T04:53:22;6.17;;;4.47;;
25982;SDS011;13773;48.868;10.730;2023-12-28T04:55:48;5.67;;;4.50;;
25982;SDS011;13773;48.868;10.730;2023-12-28T04:58:13;8.37;;;5.17;;
25982;SDS011;13773;48.868;10.730;2023-12-28T05:00:39;6.50;;;5.03;;
25982;SDS011;13773;48.868;10.730;2023-12-28T05:03:05;9.73;;;5.20;;
25982;SDS011;13773;48.868;10.730;2023-12-28T05:05:31;8.07;;;5.03;;
25982;SDS011;13773;48.868;10.730;2023-12-28T05:07:57;5.50;;;4.70;;
25982;SDS011;13773;48.868;10.730;2023-12-28T05:10:23;8.10;;;5.10;;
25982;SDS011;13773;48.868;10.730;2023-12-28T05:12:49;6.43;;;5.03;;
25982;SDS011;13773;48.868;10.730;2023-12-28T05:15:14;7.37;;;5.50;;
25982;SDS011;13773;48.868;10.730;2023-12-28T05:17:40;8.93;;;5.70;;
25982;SDS011;13773;48.868;10.730;2023-12-28T05:20:06;7.87;;;5.90;;
25982;SDS011;13773;48.868;10.730;2023-12-28T05:22:32;6.40;;;5.37;;
25982;SDS011;13773;48.868;10.730;2023-12-28T05:24:58;7.60;;;5.53;;
25982;SDS011;13773;48.868;10.730;2023-12-28T05:27:24;7.93;;;5.90;;
25982;SDS011;13773;48.868;10.730;2023-12-28T05:29:49;6.73;;;5.07;;
25982;SDS011;13773;48.868;10.730;2023-12-28T05:32:15;7.37;;;5.30;;
25982;SDS011;13773;48.868;10.730;2023-12-28T05:34:41;8.47;;;5.40;;
25982;SDS011;13773;48.868;10.730;2023-12-28T05:37:06;6.37;;;4.77;;
25982;SDS011;13773;48.868;10.730;2023-12-28T05:39:32;7.90;;;5.30;;
25982;SDS011;13773;48.868;10.730;2023-12-28T05:41:58;8.00;;;5.67;;
25982;SDS011;13773;48.868;10.730;2023-12-28T05:44:23;8.67;;;5.50;;
25982;SDS011;13773;48.868;10.730;2023-12-28T05:46:49;6.50;;;5.17;;
25982;SDS011;13773;48.868;10.730;2023-12-28T05:49:15;7.43;;;5.63;;
25982;SDS011;13773;48.868;10.730;2023-12-28T05:51:41;7.97;;;5.50;;
25982;SDS011;13773;48.868;10.730;2023-12-28T05:54:07;8.47;;;6.00;;
25982;SDS011;13773;48.868;10.730;2023-12-28T05:56:32;7.23;;;5.20;;
25982;SDS011;13773;48.868;10.730;2023-12-28T05:58:58;8.93;;;5.20;;
25982;SDS011;13773;48.868;10.730;2023-12-28T06:01:24;7.57;;;5.73;;
25982;SDS011;13773;48.868;10.730;2023-12-28T06:03:50;10.53;;;5.87;;
25982;SDS011;13773;48.868;10.730;2023-12-28T06:06:17;9.03;;;5.97;;
25982;SDS011;13773;48.868;10.730;2023-12-28T06:08:43;6.57;;;5.20;;
25982;SDS011;13773;48.868;10.730;2023-12-28T06:11:09;8.13;;;5.87;;
25982;SDS011;13773;48.868;10.730;2023-12-28T06:13:35;9.20;;;5.30;;
25982;SDS011;13773;48.868;10.730;2023-12-28T06:16:00;6.73;;;5.23;;
25982;SDS011;13773;48.868;10.730;2023-12-28T06:18:26;7.70;;;5.20;;
25982;SDS011;13773;48.868;10.730;2023-12-28T06:20:52;7.73;;;5.50;;
25982;SDS011;13773;48.868;10.730;2023-12-28T06:23:17;6.93;;;5.33;;
25982;SDS011;13773;48.868;10.730;2023-12-28T06:25:44;7.20;;;5.30;;
25982;SDS011;13773;48.868;10.730;2023-12-28T06:28:09;6.13;;;4.87;;
25982;SDS011;13773;48.868;10.730;2023-12-28T06:30:35;6.80;;;5.47;;
25982;SDS011;13773;48.868;10.730;2023-12-28T06:33:01;9.40;;;5.53;;
25982;SDS011;13773;48.868;10.730;2023-12-28T06:35:27;7.80;;;5.67;;
25982;SDS011;13773;48.868;10.730;2023-12-28T06:37:53;6.67;;;5.60;;
25982;SDS011;13773;48.868;10.730;2023-12-28T06:40:19;5.83;;;4.80;;
25982;SDS011;13773;48.868;10.730;2023-12-28T06:42:44;6.27;;;4.80;;
25982;SDS011;13773;48.868;10.730;2023-12-28T06:45:10;6.53;;;5.10;;
25982;SDS011;13773;48.868;10.730;2023-12-28T06:47:36;5.90;;;4.70;;
25982;SDS011;13773;48.868;10.730;2023-12-28T06:50:01;7.63;;;5.23;;
25982;SDS011;13773;48.868;10.730;2023-12-28T06:52:27;7.50;;;4.97;;
25982;SDS011;13773;48.868;10.730;2023-12-28T06:54:53;6.93;;;4.80;;
25982;SDS011;13773;48.868;10.730;2023-12-28T06:57:19;7.10;;;4.37;;
25982;SDS011;13773;48.868;10.730;2023-12-28T06:59:45;6.00;;;5.03;;
25982;SDS011;13773;48.868;10.730;2023-12-28T07:02:11;5.47;;;4.40;;
25982;SDS011;13773;48.868;10.730;2023-12-28T07:04:36;7.80;;;5.30;;
25982;SDS011;13773;48.868;10.730;2023-12-28T07:07:03;7.17;;;4.97;;
25982;SDS011;13773;48.868;10.730;2023-12-28T07:09:28;8.50;;;4.43;;
25982;SDS011;13773;48.868;10.730;2023-12-28T07:11:54;5.60;;;4.20;;
25982;SDS011;13773;48.868;10.730;2023-12-28T07:14:20;5.83;;;4.60;;
25982;SDS011;13773;48.868;10.730;2023-12-28T07:16:45;5.27;;;4.33;;
25982;SDS011;13773;48.868;10.730;2023-12-28T07:19:11;5.13;;;4.10;;
25982;SDS011;13773;48.868;10.730;2023-12-28T07:21:36;4.87;;;4.10;;
25982;SDS011;13773;48.868;10.730;2023-12-28T07:24:02;6.63;;;4.63;;
25982;SDS011;13773;48.868;10.730;2023-12-28T07:26:28;5.83;;;4.30;;
25982;SDS011;13773;48.868;10.730;2023-12-28T07:28:54;6.13;;;4.43;;
25982;SDS011;13773;48.868;10.730;2023-12-28T07:31:23;5.93;;;3.93;;
25982;SDS011;13773;48.868;10.730;2023-12-28T07:33:50;6.93;;;4.03;;
25982;SDS011;13773;48.868;10.730;2023-12-28T07:36:15;5.43;;;4.30;;
25982;SDS011;13773;48.868;10.730;2023-12-28T07:38:41;4.53;;;4.10;;
25982;SDS011;13773;48.868;10.730;2023-12-28T07:41:07;6.83;;;4.70;;
25982;SDS011;13773;48.868;10.730;2023-12-28T07:43:32;5.67;;;4.10;;
25982;SDS011;13773;48.868;10.730;2023-12-28T07:45:58;5.70;;;4.07;;
25982;SDS011;13773;48.868;10.730;2023-12-28T07:48:24;5.57;;;4.43;;
25982;SDS011;13773;48.868;10.730;2023-12-28T07:50:49;5.10;;;3.87;;
25982;SDS011;13773;48.868;10.730;2023-12-28T07:53:16;6.30;;;4.73;;
25982;SDS011;13773;48.868;10.730;2023-12-28T07:55:42;4.47;;;3.93;;
25982;SDS011;13773;48.868;10.730;2023-12-28T07:58:08;4.13;;;3.73;;
25982;SDS011;13773;48.868;10.730;2023-12-28T08:00:33;5.73;;;4.10;;
25982;SDS011;13773;48.868;10.730;2023-12-28T08:02:59;5.30;;;4.20;;
25982;SDS011;13773;48.868;10.730;2023-12-28T08:05:25;6.23;;;4.17;;
25982;SDS011;13773;48.868;10.730;2023-12-28T08:07:50;6.70;;;4.33;;
25982;SDS011;13773;48.868;10.730;2023-12-28T08:10:16;5.53;;;4.23;;
25982;SDS011;13773;48.868;10.730;2023-12-28T08:12:41;5.93;;;4.00;;
25982;SDS011;13773;48.868;10.730;2023-12-28T08:15:08;7.90;;;5.33;;
25982;SDS011;13773;48.868;10.730;2023-12-28T08:17:34;5.93;;;3.97;;
25982;SDS011;13773;48.868;10.730;2023-12-28T08:19:59;4.57;;;3.93;;
25982;SDS011;13773;48.868;10.730;2023-12-28T08:22:25;5.87;;;4.00;;
25982;SDS011;13773;48.868;10.730;2023-12-28T08:24:53;5.40;;;3.87;;
25982;SDS011;13773;48.868;10.730;2023-12-28T08:27:18;5.07;;;3.97;;
25982;SDS011;13773;48.868;10.730;2023-12-28T08:29:44;4.67;;;4.00;;
25982;SDS011;13773;48.868;10.730;2023-12-28T08:32:10;7.27;;;3.73;;
25982;SDS011;13773;48.868;10.730;2023-12-28T08:34:36;4.60;;;3.80;;
25982;SDS011;13773;48.868;10.730;2023-12-28T08:37:02;4.70;;;3.60;;
25982;SDS011;13773;48.868;10.730;2023-12-28T08:39:28;4.37;;;3.63;;
25982;SDS011;13773;48.868;10.730;2023-12-28T08:41:54;4.77;;;3.53;;
25982;SDS011;13773;48.868;10.730;2023-12-28T08:44:20;5.13;;;3.67;;
25982;SDS011;13773;48.868;10.730;2023-12-28T08:46:46;3.40;;;2.97;;
25982;SDS011;13773;48.868;10.730;2023-12-28T08:49:12;4.67;;;3.13;;
25982;SDS011;13773;48.868;10.730;2023-12-28T08:51:38;4.80;;;3.17;;
25982;SDS011;13773;48.868;10.730;2023-12-28T08:54:03;5.47;;;3.50;;
25982;SDS011;13773;48.868;10.730;2023-12-28T08:56:29;5.70;;;3.60;;
25982;SDS011;13773;48.868;10.730;2023-12-28T08:58:55;5.67;;;3.47;;
25982;SDS011;13773;48.868;10.730;2023-12-28T09:01:21;5.03;;;3.83;;
25982;SDS011;13773;48.868;10.730;2023-12-28T09:03:50;4.53;;;3.43;;
25982;SDS011;13773;48.868;10.730;2023-12-28T09:06:17;4.83;;;3.50;;
25982;SDS011;13773;48.868;10.730;2023-12-28T09:08:43;4.07;;;3.23;;
25982;SDS011;13773;48.868;10.730;2023-12-28T09:11:11;4.67;;;3.53;;
25982;SDS011;13773;48.868;10.730;2023-12-28T09:13:37;4.30;;;3.33;;
25982;SDS011;13773;48.868;10.730;2023-12-28T09:16:04;4.73;;;3.60;;
25982;SDS011;13773;48.868;10.730;2023-12-28T09:18:30;4.80;;;3.43;;
25982;SDS011;13773;48.868;10.730;2023-12-28T09:20:56;4.30;;;3.43;;
25982;SDS011;13773;48.868;10.730;2023-12-28T09:23:21;4.63;;;3.23;;
25982;SDS011;13773;48.868;10.730;2023-12-28T09:25:47;3.63;;;3.10;;
25982;SDS011;13773;48.868;10.730;2023-12-28T09:28:14;6.13;;;3.33;;
25982;SDS011;13773;48.868;10.730;2023-12-28T09:30:39;4.80;;;3.23;;
25982;SDS011;13773;48.868;10.730;2023-12-28T09:33:05;6.80;;;3.37;;
25982;SDS011;13773;48.868;10.730;2023-12-28T09:35:31;4.87;;;3.37;;
25982;SDS011;13773;48.868;10.730;2023-12-28T09:37:57;5.17;;;3.30;;
25982;SDS011;13773;48.868;10.730;2023-12-28T09:40:23;5.27;;;4.30;;
25982;SDS011;13773;48.868;10.730;2023-12-28T09:45:29;5.20;;;3.57;;
25982;SDS011;13773;48.868;10.730;2023-12-28T09:47:55;4.17;;;3.37;;
25982;SDS011;13773;48.868;10.730;2023-12-28T09:50:21;4.50;;;2.87;;
25982;SDS011;13773;48.868;10.730;2023-12-28T09:52:48;3.30;;;3.00;;
25982;SDS011;13773;48.868;10.730;2023-12-28T09:55:14;5.03;;;2.97;;
25982;SDS011;13773;48.868;10.730;2023-12-28T09:57:40;4.20;;;3.20;;
25982;SDS011;13773;48.868;10.730;2023-12-28T10:00:07;3.80;;;3.03;;
25982;SDS011;13773;48.868;10.730;2023-12-28T10:02:34;4.20;;;3.50;;
25982;SDS011;13773;48.868;10.730;2023-12-28T10:05:01;4.43;;;3.13;;
25982;SDS011;13773;48.868;10.730;2023-12-28T10:07:27;3.63;;;3.10;;
25982;SDS011;13773;48.868;10.730;2023-12-28T10:09:52;3.83;;;3.20;;
25982;SDS011;13773;48.868;10.730;2023-12-28T10:12:18;4.47;;;3.30;;
25982;SDS011;13773;48.868;10.730;2023-12-28T10:14:44;5.17;;;3.20;;
25982;SDS011;13773;48.868;10.730;2023-12-28T10:17:10;3.77;;;2.80;;
25982;SDS011;13773;48.868;10.730;2023-12-28T10:19:36;3.80;;;3.00;;
25982;SDS011;13773;48.868;10.730;2023-12-28T10:22:02;3.80;;;2.83;;
25982;SDS011;13773;48.868;10.730;2023-12-28T10:24:29;4.87;;;2.93;;
25982;SDS011;13773;48.868;10.730;2023-12-28T10:26:54;3.10;;;2.70;;
25982;SDS011;13773;48.868;10.730;2023-12-28T10:29:20;6.07;;;3.00;;
25982;SDS011;13773;48.868;10.730;2023-12-28T10:31:50;4.07;;;3.37;;
25982;SDS011;13773;48.868;10.730;2023-12-28T10:34:16;4.03;;;2.80;;
25982;SDS011;13773;48.868;10.730;2023-12-28T10:36:43;5.27;;;3.10;;
25982;SDS011;13773;48.868;10.730;2023-12-28T10:39:10;4.03;;;2.73;;
25982;SDS011;13773;48.868;10.730;2023-12-28T10:41:40;5.03;;;2.80;;
25982;SDS011;13773;48.868;10.730;2023-12-28T10:44:08;5.57;;;3.30;;
25982;SDS011;13773;48.868;10.730;2023-12-28T10:46:39;3.00;;;2.70;;
25982;SDS011;13773;48.868;10.730;2023-12-28T10:49:12;4.67;;;2.97;;
25982;SDS011;13773;48.868;10.730;2023-12-28T10:51:41;5.43;;;3.30;;
25982;SDS011;13773;48.868;10.730;2023-12-28T10:57:39;3.20;;;2.90;;
25982;SDS011;13773;48.868;10.730;2023-12-28T11:02:45;3.53;;;2.70;;
25982;SDS011;13773;48.868;10.730;2023-12-28T11:05:17;4.70;;;3.30;;
25982;SDS011;13773;48.868;10.730;2023-12-28T11:07:45;4.57;;;3.00;;
25982;SDS011;13773;48.868;10.730;2023-12-28T11:10:13;5.13;;;3.40;;
25982;SDS011;13773;48.868;10.730;2023-12-28T11:12:39;4.97;;;3.70;;
25982;SDS011;13773;48.868;10.730;2023-12-28T11:15:06;6.13;;;3.00;;
25982;SDS011;13773;48.868;10.730;2023-12-28T11:17:33;5.40;;;3.20;;
25982;SDS011;13773;48.868;10.730;2023-12-28T11:20:02;8.47;;;4.33;;
25982;SDS011;13773;48.868;10.730;2023-12-28T11:22:30;7.37;;;5.27;;
25982;SDS011;13773;48.868;10.730;2023-12-28T11:24:56;8.57;;;4.87;;
25982;SDS011;13773;48.868;10.730;2023-12-28T11:27:22;6.93;;;4.53;;
25982;SDS011;13773;48.868;10.730;2023-12-28T11:29:51;6.20;;;4.60;;
25982;SDS011;13773;48.868;10.730;2023-12-28T11:32:17;7.07;;;5.37;;
25982;SDS011;13773;48.868;10.730;2023-12-28T11:34:56;6.57;;;4.80;;
25982;SDS011;13773;48.868;10.730;2023-12-28T11:37:23;5.20;;;4.17;;
25982;SDS011;13773;48.868;10.730;2023-12-28T11:39:51;7.33;;;4.60;;
25982;SDS011;13773;48.868;10.730;2023-12-28T11:42:22;4.57;;;3.70;;
25982;SDS011;13773;48.868;10.730;2023-12-28T11:44:54;4.97;;;3.60;;
25982;SDS011;13773;48.868;10.730;2023-12-28T11:47:21;6.00;;;4.17;;
25982;SDS011;13773;48.868;10.730;2023-12-28T11:49:48;6.40;;;4.50;;
25982;SDS011;13773;48.868;10.730;2023-12-28T11:52:29;6.60;;;4.43;;
25982;SDS011;13773;48.868;10.730;2023-12-28T11:54:56;6.50;;;4.07;;
25982;SDS011;13773;48.868;10.730;2023-12-28T11:57:24;4.60;;;3.40;;
25982;SDS011;13773;48.868;10.730;2023-12-28T11:59:57;6.27;;;3.67;;
25982;SDS011;13773;48.868;10.730;2023-12-28T12:02:27;6.03;;;3.23;;
25982;SDS011;13773;48.868;10.730;2023-12-28T12:04:53;5.00;;;3.60;;
25982;SDS011;13773;48.868;10.730;2023-12-28T12:07:19;3.57;;;3.13;;
25982;SDS011;13773;48.868;10.730;2023-12-28T12:09:45;3.87;;;3.30;;
25982;SDS011;13773;48.868;10.730;2023-12-28T12:12:11;4.30;;;3.40;;
25982;SDS011;13773;48.868;10.730;2023-12-28T12:14:36;3.77;;;3.17;;
25982;SDS011;13773;48.868;10.730;2023-12-28T12:17:02;5.53;;;3.40;;
25982;SDS011;13773;48.868;10.730;2023-12-28T12:19:28;4.23;;;3.50;;
25982;SDS011;13773;48.868;10.730;2023-12-28T12:21:54;4.43;;;3.20;;
25982;SDS011;13773;48.868;10.730;2023-12-28T12:24:22;4.67;;;3.60;;
25982;SDS011;13773;48.868;10.730;2023-12-28T12:26:51;8.17;;;4.33;;
25982;SDS011;13773;48.868;10.730;2023-12-28T12:29:18;5.70;;;3.80;;
25982;SDS011;13773;48.868;10.730;2023-12-28T12:31:44;3.90;;;3.13;;
25982;SDS011;13773;48.868;10.730;2023-12-28T12:34:13;5.80;;;2.87;;
25982;SDS011;13773;48.868;10.730;2023-12-28T12:36:41;5.20;;;4.27;;
25982;SDS011;13773;48.868;10.730;2023-12-28T12:39:07;4.60;;;3.60;;
25982;SDS011;13773;48.868;10.730;2023-12-28T12:41:36;3.23;;;2.57;;
25982;SDS011;13773;48.868;10.730;2023-12-28T12:44:02;3.40;;;3.00;;
25982;SDS011;13773;48.868;10.730;2023-12-28T12:46:29;4.40;;;2.77;;
25982;SDS011;13773;48.868;10.730;2023-12-28T12:48:56;3.13;;;2.70;;
25982;SDS011;13773;48.868;10.730;2023-12-28T12:51:27;4.50;;;3.07;;
25982;SDS011;13773;48.868;10.730;2023-12-28T12:53:59;5.33;;;3.10;;
25982;SDS011;13773;48.868;10.730;2023-12-28T12:56:27;3.77;;;2.60;;
25982;SDS011;13773;48.868;10.730;2023-12-28T12:58:54;5.60;;;3.37;;
25982;SDS011;13773;48.868;10.730;2023-12-28T13:01:20;3.50;;;2.83;;
25982;SDS011;13773;48.868;10.730;2023-12-28T13:03:46;5.27;;;2.93;;
25982;SDS011;13773;48.868;10.730;2023-12-28T13:06:12;5.20;;;3.27;;
25982;SDS011;13773;48.868;10.730;2023-12-28T13:08:38;4.57;;;3.00;;
25982;SDS011;13773;48.868;10.730;2023-12-28T13:11:04;5.47;;;2.67;;
25982;SDS011;13773;48.868;10.730;2023-12-28T13:13:33;6.03;;;3.20;;
25982;SDS011;13773;48.868;10.730;2023-12-28T13:15:59;5.57;;;3.53;;
25982;SDS011;13773;48.868;10.730;2023-12-28T13:18:25;4.90;;;3.77;;
25982;SDS011;13773;48.868;10.730;2023-12-28T13:20:51;6.13;;;2.90;;
25982;SDS011;13773;48.868;10.730;2023-12-28T13:23:17;5.20;;;2.80;;
25982;SDS011;13773;48.868;10.730;2023-12-28T13:25:42;4.77;;;2.90;;
25982;SDS011;13773;48.868;10.730;2023-12-28T13:28:09;3.90;;;2.87;;
25982;SDS011;13773;48.868;10.730;2023-12-28T13:30:35;5.13;;;3.00;;
25982;SDS011;13773;48.868;10.730;2023-12-28T13:33:05;4.97;;;3.07;;
25982;SDS011;13773;48.868;10.730;2023-12-28T13:35:31;3.27;;;2.73;;
25982;SDS011;13773;48.868;10.730;2023-12-28T13:38:00;3.50;;;2.80;;
25982;SDS011;13773;48.868;10.730;2023-12-28T13:40:28;3.93;;;2.53;;
25982;SDS011;13773;48.868;10.730;2023-12-28T13:42:56;3.50;;;2.53;;
25982;SDS011;13773;48.868;10.730;2023-12-28T13:45:21;3.97;;;2.90;;
25982;SDS011;13773;48.868;10.730;2023-12-28T13:47:47;3.77;;;2.70;;
25982;SDS011;13773;48.868;10.730;2023-12-28T13:50:13;4.30;;;2.60;;
25982;SDS011;13773;48.868;10.730;2023-12-28T13:52:39;2.80;;;2.57;;
25982;SDS011;13773;48.868;10.730;2023-12-28T13:55:04;5.07;;;3.10;;
25982;SDS011;13773;48.868;10.730;2023-12-28T13:57:30;2.83;;;2.40;;
25982;SDS011;13773;48.868;10.730;2023-12-28T13:59:57;3.43;;;2.50;;
25982;SDS011;13773;48.868;10.730;2023-12-28T14:02:25;3.63;;;2.73;;
25982;SDS011;13773;48.868;10.730;2023-12-28T14:04:54;4.17;;;2.50;;
25982;SDS011;13773;48.868;10.730;2023-12-28T14:07:21;3.43;;;2.63;;
25982;SDS011;13773;48.868;10.730;2023-12-28T14:09:47;3.30;;;2.40;;
25982;SDS011;13773;48.868;10.730;2023-12-28T14:12:13;3.53;;;2.37;;
25982;SDS011;13773;48.868;10.730;2023-12-28T14:14:38;7.13;;;2.90;;
25982;SDS011;13773;48.868;10.730;2023-12-28T14:17:04;5.33;;;3.17;;
25982;SDS011;13773;48.868;10.730;2023-12-28T14:19:30;3.10;;;2.67;;
25982;SDS011;13773;48.868;10.730;2023-12-28T14:21:56;4.83;;;2.80;;
25982;SDS011;13773;48.868;10.730;2023-12-28T14:24:22;3.90;;;2.90;;
25982;SDS011;13773;48.868;10.730;2023-12-28T14:26:48;4.27;;;3.10;;
25982;SDS011;13773;48.868;10.730;2023-12-28T14:29:19;4.53;;;2.87;;
25982;SDS011;13773;48.868;10.730;2023-12-28T14:31:45;5.83;;;3.30;;
25982;SDS011;13773;48.868;10.730;2023-12-28T14:34:12;3.47;;;2.97;;
25982;SDS011;13773;48.868;10.730;2023-12-28T14:36:38;4.17;;;3.00;;
25982;SDS011;13773;48.868;10.730;2023-12-28T14:39:04;4.97;;;3.80;;
25982;SDS011;13773;48.868;10.730;2023-12-28T14:41:32;4.60;;;3.30;;